sensor_id;sensor_type;location;lat;lon;timestamp;temperature;humidity
12893;DHT22;6514;48.606;9.222;2024-01-16T00:00:43;-1.40;99.90
12893;DHT22;6514;48.606;9.222;2024-01-16T00:03:10;-1.40;99.90
12893;DHT22;6514;48.606;9.222;2024-01-16T00:05:36;-1.40;99.90
12893;DHT22;6514;48.606;9.222;2024-01-16T00:08:03;-1.40;99.90
12893;DHT22;6514;48.606;9.222;2024-01-16T00:10:30;-1.40;99.90
12893;DHT22;6514;48.606;9.222;2024-01-16T00:12:57;-1.40;99.90
12893;DHT22;6514;48.606;9.222;2024-01-16T00:15:24;-1.40;99.90
12893;DHT22;6514;48.606;9.222;2024-01-16T00:17:52;-1.40;99.90
12893;DHT22;6514;48.606;9.222;2024-01-16T00:20:19;-1.40;99.90
12893;DHT22;6514;48.606;9.222;2024-01-16T00:22:47;-1.40;99.90
12893;DHT22;6514;48.606;9.222;2024-01-16T00:25:14;-1.40;99.90
12893;DHT22;6514;48.606;9.222;2024-01-16T00:27:41;-1.40;99.90
12893;DHT22;6514;48.606;9.222;2024-01-16T00:30:09;-1.40;99.90
12893;DHT22;6514;48.606;9.222;2024-01-16T00:32:36;-1.50;99.90
12893;DHT22;6514;48.606;9.222;2024-01-16T00:35:04;-1.50;99.90
12893;DHT22;6514;48.606;9.222;2024-01-16T00:37:31;-1.50;99.90
12893;DHT22;6514;48.606;9.222;2024-01-16T00:39:58;-1.40;99.90
12893;DHT22;6514;48.606;9.222;2024-01-16T00:42:25;-2.20;99.90
12893;DHT22;6514;48.606;9.222;2024-01-16T00:44:52;-1.50;99.90
12893;DHT22;6514;48.606;9.222;2024-01-16T00:47:19;-1.50;99.90
12893;DHT22;6514;48.606;9.222;2024-01-16T00:49:46;-1.50;99.90
12893;DHT22;6514;48.606;9.222;2024-01-16T00:52:14;-1.50;99.90
12893;DHT22;6514;48.606;9.222;2024-01-16T00:54:41;-1.50;99.90
12893;DHT22;6514;48.606;9.222;2024-01-16T00:57:08;-1.60;99.90
12893;DHT22;6514;48.606;9.222;2024-01-16T00:59:36;-1.60;99.90
12893;DHT22;6514;48.606;9.222;2024-01-16T01:02:03;-1.60;99.90
12893;DHT22;6514;48.606;9.222;2024-01-16T01:04:32;-1.70;99.90
12893;DHT22;6514;48.606;9.222;2024-01-16T01:06:59;-1.70;99.90
12893;DHT22;6514;48.606;9.222;2024-01-16T01:09:27;-1.70;99.90
12893;DHT22;6514;48.606;9.222;2024-01-16T01:11:53;-1.70;99.90
12893;DHT22;6514;48.606;9.222;2024-01-16T01:14:20;-1.70;99.90
12893;DHT22;6514;48.606;9.222;2024-01-16T01:16:47;-1.70;99.90
12893;DHT22;6514;48.606;9.222;2024-01-16T01:19:14;-1.60;99.90
12893;DHT22;6514;48.606;9.222;2024-01-16T01:21:41;-1.60;99.90
12893;DHT22;6514;48.606;9.222;2024-01-16T01:24:08;-1.60;99.90
12893;DHT22;6514;48.606;9.222;2024-01-16T01:26:36;-1.60;99.90
12893;DHT22;6514;48.606;9.222;2024-01-16T01:29:03;-1.70;99.90
12893;DHT22;6514;48.606;9.222;2024-01-16T01:31:29;-1.60;99.90
12893;DHT22;6514;48.606;9.222;2024-01-16T01:33:56;-1.60;99.90
12893;DHT22;6514;48.606;9.222;2024-01-16T01:36:23;-1.60;99.90
12893;DHT22;6514;48.606;9.222;2024-01-16T01:38:50;-1.60;99.90
12893;DHT22;6514;48.606;9.222;2024-01-16T01:41:17;-1.60;99.90
12893;DHT22;6514;48.606;9.222;2024-01-16T01:43:45;-1.60;99.90
12893;DHT22;6514;48.606;9.222;2024-01-16T01:46:16;-1.60;99.90
12893;DHT22;6514;48.606;9.222;2024-01-16T01:48:46;-1.70;99.90
12893;DHT22;6514;48.606;9.222;2024-01-16T01:51:14;-1.70;99.90
12893;DHT22;6514;48.606;9.222;2024-01-16T01:53:42;-1.70;99.90
12893;DHT22;6514;48.606;9.222;2024-01-16T01:56:13;-1.00;99.90
12893;DHT22;6514;48.606;9.222;2024-01-16T01:58:46;-1.70;99.90
12893;DHT22;6514;48.606;9.222;2024-01-16T02:01:14;-1.70;99.90
12893;DHT22;6514;48.606;9.222;2024-01-16T02:03:42;-1.70;99.90
12893;DHT22;6514;48.606;9.222;2024-01-16T02:06:10;-1.70;99.90
12893;DHT22;6514;48.606;9.222;2024-01-16T02:08:37;-1.80;99.90
12893;DHT22;6514;48.606;9.222;2024-01-16T02:11:05;-1.80;99.90
12893;DHT22;6514;48.606;9.222;2024-01-16T02:13:32;-1.90;99.90
12893;DHT22;6514;48.606;9.222;2024-01-16T02:16:00;-1.90;99.90
12893;DHT22;6514;48.606;9.222;2024-01-16T02:18:28;-2.00;99.90
12893;DHT22;6514;48.606;9.222;2024-01-16T02:20:59;-2.00;99.90
12893;DHT22;6514;48.606;9.222;2024-01-16T02:23:28;-2.00;99.90
12893;DHT22;6514;48.606;9.222;2024-01-16T02:25:56;-2.10;99.90
12893;DHT22;6514;48.606;9.222;2024-01-16T02:28:23;-2.10;99.90
12893;DHT22;6514;48.606;9.222;2024-01-16T02:30:49;-2.20;99.90
12893;DHT22;6514;48.606;9.222;2024-01-16T02:33:16;-2.20;99.90
12893;DHT22;6514;48.606;9.222;2024-01-16T02:35:43;-2.20;99.90
12893;DHT22;6514;48.606;9.222;2024-01-16T02:38:10;-2.10;99.90
12893;DHT22;6514;48.606;9.222;2024-01-16T02:40:38;-2.10;99.90
12893;DHT22;6514;48.606;9.222;2024-01-16T02:43:06;-2.10;99.90
12893;DHT22;6514;48.606;9.222;2024-01-16T02:45:33;-2.10;99.90
12893;DHT22;6514;48.606;9.222;2024-01-16T02:48:00;-2.10;99.90
12893;DHT22;6514;48.606;9.222;2024-01-16T02:50:26;-2.10;99.90
12893;DHT22;6514;48.606;9.222;2024-01-16T02:52:53;-2.10;99.90
12893;DHT22;6514;48.606;9.222;2024-01-16T02:55:20;-2.10;99.90
12893;DHT22;6514;48.606;9.222;2024-01-16T02:57:48;-2.20;99.90
12893;DHT22;6514;48.606;9.222;2024-01-16T03:00:16;-2.20;99.90
12893;DHT22;6514;48.606;9.222;2024-01-16T03:02:43;-2.20;99.90
12893;DHT22;6514;48.606;9.222;2024-01-16T03:05:10;-2.30;99.90
12893;DHT22;6514;48.606;9.222;2024-01-16T03:07:37;-2.30;99.90
12893;DHT22;6514;48.606;9.222;2024-01-16T03:10:04;-2.40;99.90
12893;DHT22;6514;48.606;9.222;2024-01-16T03:12:32;-2.40;99.90
12893;DHT22;6514;48.606;9.222;2024-01-16T03:15:00;-2.50;99.90
12893;DHT22;6514;48.606;9.222;2024-01-16T03:17:27;-2.50;99.90
12893;DHT22;6514;48.606;9.222;2024-01-16T03:19:54;-2.50;99.90
12893;DHT22;6514;48.606;9.222;2024-01-16T03:22:21;-2.50;99.90
12893;DHT22;6514;48.606;9.222;2024-01-16T03:24:48;-2.60;99.90
12893;DHT22;6514;48.606;9.222;2024-01-16T03:27:15;-2.60;99.90
12893;DHT22;6514;48.606;9.222;2024-01-16T03:29:42;-2.60;99.90
12893;DHT22;6514;48.606;9.222;2024-01-16T03:32:10;-2.70;99.90
12893;DHT22;6514;48.606;9.222;2024-01-16T03:34:37;-2.70;99.90
12893;DHT22;6514;48.606;9.222;2024-01-16T03:37:05;-2.70;99.90
12893;DHT22;6514;48.606;9.222;2024-01-16T03:39:32;-2.80;99.90
12893;DHT22;6514;48.606;9.222;2024-01-16T03:41:59;-2.90;99.90
12893;DHT22;6514;48.606;9.222;2024-01-16T03:44:26;-2.90;99.90
12893;DHT22;6514;48.606;9.222;2024-01-16T03:46:52;-3.00;99.90
12893;DHT22;6514;48.606;9.222;2024-01-16T03:49:21;-3.10;99.90
12893;DHT22;6514;48.606;9.222;2024-01-16T03:51:49;-3.10;99.90
12893;DHT22;6514;48.606;9.222;2024-01-16T03:54:16;-3.20;99.90
12893;DHT22;6514;48.606;9.222;2024-01-16T03:56:42;-3.30;99.90
12893;DHT22;6514;48.606;9.222;2024-01-16T03:59:09;-3.30;99.90
12893;DHT22;6514;48.606;9.222;2024-01-16T04:01:36;-3.40;99.90
12893;DHT22;6514;48.606;9.222;2024-01-16T04:06:34;-3.50;99.90
12893;DHT22;6514;48.606;9.222;2024-01-16T04:09:01;-3.60;99.90
12893;DHT22;6514;48.606;9.222;2024-01-16T04:11:28;-3.60;99.90
12893;DHT22;6514;48.606;9.222;2024-01-16T04:13:55;-3.70;99.90
12893;DHT22;6514;48.606;9.222;2024-01-16T04:16:22;-3.70;99.90
12893;DHT22;6514;48.606;9.222;2024-01-16T04:18:49;-3.60;99.90
12893;DHT22;6514;48.606;9.222;2024-01-16T04:21:16;-3.60;99.90
12893;DHT22;6514;48.606;9.222;2024-01-16T04:23:44;-3.70;99.90
12893;DHT22;6514;48.606;9.222;2024-01-16T04:26:11;-3.70;99.90
12893;DHT22;6514;48.606;9.222;2024-01-16T04:28:38;-3.80;99.90
12893;DHT22;6514;48.606;9.222;2024-01-16T04:31:05;-3.90;99.90
12893;DHT22;6514;48.606;9.222;2024-01-16T04:33:32;-3.90;99.90
12893;DHT22;6514;48.606;9.222;2024-01-16T04:35:59;-4.00;99.90
12893;DHT22;6514;48.606;9.222;2024-01-16T04:38:26;-4.00;99.90
12893;DHT22;6514;48.606;9.222;2024-01-16T04:40:54;-4.10;99.90
12893;DHT22;6514;48.606;9.222;2024-01-16T04:43:21;-4.10;99.90
12893;DHT22;6514;48.606;9.222;2024-01-16T04:45:48;-4.20;99.90
12893;DHT22;6514;48.606;9.222;2024-01-16T04:48:14;-4.30;99.90
12893;DHT22;6514;48.606;9.222;2024-01-16T04:50:42;-4.40;99.90
12893;DHT22;6514;48.606;9.222;2024-01-16T04:53:11;-4.50;99.90
12893;DHT22;6514;48.606;9.222;2024-01-16T04:55:38;-4.60;99.90
12893;DHT22;6514;48.606;9.222;2024-01-16T04:58:06;-4.70;99.90
12893;DHT22;6514;48.606;9.222;2024-01-16T05:00:33;-4.80;99.90
12893;DHT22;6514;48.606;9.222;2024-01-16T05:03:00;-4.80;99.90
12893;DHT22;6514;48.606;9.222;2024-01-16T05:05:29;-4.70;99.90
12893;DHT22;6514;48.606;9.222;2024-01-16T05:07:56;-4.70;99.90
12893;DHT22;6514;48.606;9.222;2024-01-16T05:10:23;-4.70;99.90
12893;DHT22;6514;48.606;9.222;2024-01-16T05:12:49;-4.70;99.90
12893;DHT22;6514;48.606;9.222;2024-01-16T05:15:18;-4.80;99.90
12893;DHT22;6514;48.606;9.222;2024-01-16T05:17:44;-4.90;99.90
12893;DHT22;6514;48.606;9.222;2024-01-16T05:20:11;-4.90;99.90
12893;DHT22;6514;48.606;9.222;2024-01-16T05:22:38;-5.00;99.90
12893;DHT22;6514;48.606;9.222;2024-01-16T05:25:06;-5.00;99.90
12893;DHT22;6514;48.606;9.222;2024-01-16T05:27:33;-5.10;99.90
12893;DHT22;6514;48.606;9.222;2024-01-16T05:30:00;-5.10;99.90
12893;DHT22;6514;48.606;9.222;2024-01-16T05:32:28;-5.10;99.90
12893;DHT22;6514;48.606;9.222;2024-01-16T05:34:55;-5.20;99.90
12893;DHT22;6514;48.606;9.222;2024-01-16T05:37:22;-5.20;99.90
12893;DHT22;6514;48.606;9.222;2024-01-16T05:39:48;-5.20;99.90
12893;DHT22;6514;48.606;9.222;2024-01-16T05:42:15;-5.20;99.90
12893;DHT22;6514;48.606;9.222;2024-01-16T05:44:43;-5.20;99.90
12893;DHT22;6514;48.606;9.222;2024-01-16T05:47:09;-5.20;99.90
12893;DHT22;6514;48.606;9.222;2024-01-16T05:49:38;-5.20;99.90
12893;DHT22;6514;48.606;9.222;2024-01-16T05:52:07;-5.20;99.90
12893;DHT22;6514;48.606;9.222;2024-01-16T05:54:34;-5.20;99.90
12893;DHT22;6514;48.606;9.222;2024-01-16T05:57:01;-5.20;99.90
12893;DHT22;6514;48.606;9.222;2024-01-16T05:59:28;-5.10;99.90
12893;DHT22;6514;48.606;9.222;2024-01-16T06:01:55;-5.10;99.90
12893;DHT22;6514;48.606;9.222;2024-01-16T06:04:22;-5.00;99.90
12893;DHT22;6514;48.606;9.222;2024-01-16T06:06:50;-4.90;99.90
12893;DHT22;6514;48.606;9.222;2024-01-16T06:09:16;-4.80;99.90
12893;DHT22;6514;48.606;9.222;2024-01-16T06:11:44;-4.70;99.90
12893;DHT22;6514;48.606;9.222;2024-01-16T06:14:10;-4.60;99.90
12893;DHT22;6514;48.606;9.222;2024-01-16T06:16:38;-4.60;99.90
12893;DHT22;6514;48.606;9.222;2024-01-16T06:19:05;-4.50;99.90
12893;DHT22;6514;48.606;9.222;2024-01-16T06:21:33;-4.40;99.90
12893;DHT22;6514;48.606;9.222;2024-01-16T06:24:01;-4.20;99.90
12893;DHT22;6514;48.606;9.222;2024-01-16T06:26:28;-4.20;99.90
12893;DHT22;6514;48.606;9.222;2024-01-16T06:28:55;-4.10;99.90
12893;DHT22;6514;48.606;9.222;2024-01-16T06:31:22;-4.10;99.90
12893;DHT22;6514;48.606;9.222;2024-01-16T06:33:49;-4.00;99.90
12893;DHT22;6514;48.606;9.222;2024-01-16T06:36:16;-4.00;99.90
12893;DHT22;6514;48.606;9.222;2024-01-16T06:38:42;-3.90;99.90
12893;DHT22;6514;48.606;9.222;2024-01-16T06:41:11;-4.00;99.90
12893;DHT22;6514;48.606;9.222;2024-01-16T06:43:37;-3.90;99.90
12893;DHT22;6514;48.606;9.222;2024-01-16T06:46:05;-3.90;99.90
12893;DHT22;6514;48.606;9.222;2024-01-16T06:48:31;-3.80;99.90
12893;DHT22;6514;48.606;9.222;2024-01-16T06:50:58;-3.80;99.90
12893;DHT22;6514;48.606;9.222;2024-01-16T06:53:26;-3.80;99.90
12893;DHT22;6514;48.606;9.222;2024-01-16T06:55:53;-3.70;99.90
12893;DHT22;6514;48.606;9.222;2024-01-16T06:58:21;-3.70;99.90
12893;DHT22;6514;48.606;9.222;2024-01-16T07:00:48;-3.70;99.90
12893;DHT22;6514;48.606;9.222;2024-01-16T07:03:15;-3.70;99.90
12893;DHT22;6514;48.606;9.222;2024-01-16T07:05:42;-3.60;99.90
12893;DHT22;6514;48.606;9.222;2024-01-16T07:08:09;-3.60;99.90
12893;DHT22;6514;48.606;9.222;2024-01-16T07:10:36;-3.70;99.90
12893;DHT22;6514;48.606;9.222;2024-01-16T07:13:03;-3.60;99.90
12893;DHT22;6514;48.606;9.222;2024-01-16T07:15:32;-3.60;99.90
12893;DHT22;6514;48.606;9.222;2024-01-16T07:17:58;-3.60;99.90
12893;DHT22;6514;48.606;9.222;2024-01-16T07:20:25;-3.70;99.90
12893;DHT22;6514;48.606;9.222;2024-01-16T07:22:52;-3.70;99.90
12893;DHT22;6514;48.606;9.222;2024-01-16T07:25:19;-3.80;99.90
12893;DHT22;6514;48.606;9.222;2024-01-16T07:27:46;-3.80;99.90
12893;DHT22;6514;48.606;9.222;2024-01-16T07:30:15;-3.90;99.90
12893;DHT22;6514;48.606;9.222;2024-01-16T07:32:43;-4.00;99.90
12893;DHT22;6514;48.606;9.222;2024-01-16T07:35:10;-4.00;99.90
12893;DHT22;6514;48.606;9.222;2024-01-16T07:37:37;-4.10;99.90
12893;DHT22;6514;48.606;9.222;2024-01-16T07:40:04;-5.80;99.90
12893;DHT22;6514;48.606;9.222;2024-01-16T07:42:31;-4.10;99.90
12893;DHT22;6514;48.606;9.222;2024-01-16T07:44:59;-4.20;99.90
12893;DHT22;6514;48.606;9.222;2024-01-16T07:47:27;-4.20;99.90
12893;DHT22;6514;48.606;9.222;2024-01-16T07:49:55;-4.10;99.90
12893;DHT22;6514;48.606;9.222;2024-01-16T07:52:22;-4.00;99.90
12893;DHT22;6514;48.606;9.222;2024-01-16T07:54:49;-3.90;99.90
12893;DHT22;6514;48.606;9.222;2024-01-16T07:57:16;-3.90;99.90
12893;DHT22;6514;48.606;9.222;2024-01-16T07:59:42;-3.80;99.90
12893;DHT22;6514;48.606;9.222;2024-01-16T08:02:09;-3.80;99.90
12893;DHT22;6514;48.606;9.222;2024-01-16T08:04:36;-3.80;99.90
12893;DHT22;6514;48.606;9.222;2024-01-16T08:07:05;-3.60;99.90
12893;DHT22;6514;48.606;9.222;2024-01-16T08:09:31;-3.60;99.90
12893;DHT22;6514;48.606;9.222;2024-01-16T08:11:58;-3.60;99.90
12893;DHT22;6514;48.606;9.222;2024-01-16T08:14:27;-3.50;99.90
12893;DHT22;6514;48.606;9.222;2024-01-16T08:16:54;-3.40;99.90
12893;DHT22;6514;48.606;9.222;2024-01-16T08:19:21;-3.20;99.90
12893;DHT22;6514;48.606;9.222;2024-01-16T08:21:47;-3.20;99.90
12893;DHT22;6514;48.606;9.222;2024-01-16T08:24:15;-3.20;99.90
12893;DHT22;6514;48.606;9.222;2024-01-16T08:26:42;-3.10;99.90
12893;DHT22;6514;48.606;9.222;2024-01-16T08:29:09;-3.10;99.90
12893;DHT22;6514;48.606;9.222;2024-01-16T08:31:35;-3.00;99.90
12893;DHT22;6514;48.606;9.222;2024-01-16T08:34:02;-2.90;99.90
12893;DHT22;6514;48.606;9.222;2024-01-16T08:36:29;-2.80;99.90
12893;DHT22;6514;48.606;9.222;2024-01-16T08:38:56;-2.60;99.90
12893;DHT22;6514;48.606;9.222;2024-01-16T08:41:24;-2.60;99.90
12893;DHT22;6514;48.606;9.222;2024-01-16T08:43:50;-2.60;99.90
12893;DHT22;6514;48.606;9.222;2024-01-16T08:46:18;-2.50;99.90
12893;DHT22;6514;48.606;9.222;2024-01-16T08:48:46;-2.40;99.90
12893;DHT22;6514;48.606;9.222;2024-01-16T08:51:13;-2.40;99.90
12893;DHT22;6514;48.606;9.222;2024-01-16T08:53:40;-2.30;99.90
12893;DHT22;6514;48.606;9.222;2024-01-16T08:56:07;-2.20;99.90
12893;DHT22;6514;48.606;9.222;2024-01-16T08:58:35;-2.10;99.90
12893;DHT22;6514;48.606;9.222;2024-01-16T09:01:03;-2.10;99.90
12893;DHT22;6514;48.606;9.222;2024-01-16T09:03:32;-2.00;99.90
12893;DHT22;6514;48.606;9.222;2024-01-16T09:05:59;-1.90;99.90
12893;DHT22;6514;48.606;9.222;2024-01-16T09:08:26;-1.70;99.90
12893;DHT22;6514;48.606;9.222;2024-01-16T09:10:53;-1.50;99.90
12893;DHT22;6514;48.606;9.222;2024-01-16T09:13:20;-1.10;99.90
12893;DHT22;6514;48.606;9.222;2024-01-16T09:15:50;-0.70;99.90
12893;DHT22;6514;48.606;9.222;2024-01-16T09:18:16;-0.40;99.90
12893;DHT22;6514;48.606;9.222;2024-01-16T09:20:43;0.10;99.90
12893;DHT22;6514;48.606;9.222;2024-01-16T09:23:10;0.30;99.90
12893;DHT22;6514;48.606;9.222;2024-01-16T09:25:38;0.50;99.90
12893;DHT22;6514;48.606;9.222;2024-01-16T09:28:05;0.70;99.90
12893;DHT22;6514;48.606;9.222;2024-01-16T09:30:32;0.80;99.90
12893;DHT22;6514;48.606;9.222;2024-01-16T09:33:00;0.90;99.90
12893;DHT22;6514;48.606;9.222;2024-01-16T09:35:27;1.10;99.90
12893;DHT22;6514;48.606;9.222;2024-01-16T09:37:53;1.20;99.90
12893;DHT22;6514;48.606;9.222;2024-01-16T09:40:20;1.30;99.90
12893;DHT22;6514;48.606;9.222;2024-01-16T09:42:47;1.40;99.90
12893;DHT22;6514;48.606;9.222;2024-01-16T09:45:19;1.50;99.90
12893;DHT22;6514;48.606;9.222;2024-01-16T09:47:47;1.60;99.90
12893;DHT22;6514;48.606;9.222;2024-01-16T09:50:16;1.80;99.90
12893;DHT22;6514;48.606;9.222;2024-01-16T09:52:43;1.90;99.90
12893;DHT22;6514;48.606;9.222;2024-01-16T09:55:10;2.00;99.90
12893;DHT22;6514;48.606;9.222;2024-01-16T09:57:39;2.10;99.90
12893;DHT22;6514;48.606;9.222;2024-01-16T10:00:08;2.30;99.90
12893;DHT22;6514;48.606;9.222;2024-01-16T10:02:38;2.40;99.90
12893;DHT22;6514;48.606;9.222;2024-01-16T10:05:05;2.80;99.90
12893;DHT22;6514;48.606;9.222;2024-01-16T10:07:36;3.20;99.90
12893;DHT22;6514;48.606;9.222;2024-01-16T10:10:04;3.40;99.90
12893;DHT22;6514;48.606;9.222;2024-01-16T10:12:31;3.40;99.90
12893;DHT22;6514;48.606;9.222;2024-01-16T10:14:58;3.40;99.90
12893;DHT22;6514;48.606;9.222;2024-01-16T10:17:35;3.60;99.90
12893;DHT22;6514;48.606;9.222;2024-01-16T10:20:03;3.80;99.90
12893;DHT22;6514;48.606;9.222;2024-01-16T10:22:31;4.10;99.90
12893;DHT22;6514;48.606;9.222;2024-01-16T10:25:06;4.20;99.90
12893;DHT22;6514;48.606;9.222;2024-01-16T10:27:34;4.40;99.90
12893;DHT22;6514;48.606;9.222;2024-01-16T10:30:02;4.50;99.90
12893;DHT22;6514;48.606;9.222;2024-01-16T10:32:30;4.50;99.90
12893;DHT22;6514;48.606;9.222;2024-01-16T10:35:04;4.30;99.90
12893;DHT22;6514;48.606;9.222;2024-01-16T10:37:40;4.10;99.90
12893;DHT22;6514;48.606;9.222;2024-01-16T10:40:09;4.00;99.90
12893;DHT22;6514;48.606;9.222;2024-01-16T10:42:36;3.80;99.90
12893;DHT22;6514;48.606;9.222;2024-01-16T10:45:06;3.60;99.90
12893;DHT22;6514;48.606;9.222;2024-01-16T10:47:33;3.50;99.90
12893;DHT22;6514;48.606;9.222;2024-01-16T10:50:00;3.40;99.90
12893;DHT22;6514;48.606;9.222;2024-01-16T10:52:28;4.20;99.90
12893;DHT22;6514;48.606;9.222;2024-01-16T10:54:57;3.30;99.90
12893;DHT22;6514;48.606;9.222;2024-01-16T10:57:31;3.20;99.90
12893;DHT22;6514;48.606;9.222;2024-01-16T11:00:02;4.00;99.90
12893;DHT22;6514;48.606;9.222;2024-01-16T11:02:37;3.60;99.90
12893;DHT22;6514;48.606;9.222;2024-01-16T11:05:06;3.80;99.90
12893;DHT22;6514;48.606;9.222;2024-01-16T11:07:34;3.40;99.90
12893;DHT22;6514;48.606;9.222;2024-01-16T11:10:02;3.70;99.90
12893;DHT22;6514;48.606;9.222;2024-01-16T11:12:32;3.60;99.90
12893;DHT22;6514;48.606;9.222;2024-01-16T11:15:00;3.50;99.90
12893;DHT22;6514;48.606;9.222;2024-01-16T11:17:29;3.50;99.90
12893;DHT22;6514;48.606;9.222;2024-01-16T11:19:58;4.00;99.90
12893;DHT22;6514;48.606;9.222;2024-01-16T11:22:25;3.70;99.90
12893;DHT22;6514;48.606;9.222;2024-01-16T11:25:09;3.80;99.90
12893;DHT22;6514;48.606;9.222;2024-01-16T11:27:37;3.90;99.90
12893;DHT22;6514;48.606;9.222;2024-01-16T11:30:06;4.10;99.90
12893;DHT22;6514;48.606;9.222;2024-01-16T11:32:34;4.20;99.90
12893;DHT22;6514;48.606;9.222;2024-01-16T11:35:02;4.20;99.90
12893;DHT22;6514;48.606;9.222;2024-01-16T11:37:30;4.20;99.90
12893;DHT22;6514;48.606;9.222;2024-01-16T11:40:23;4.20;99.90
12893;DHT22;6514;48.606;9.222;2024-01-16T11:42:54;4.20;99.90
12893;DHT22;6514;48.606;9.222;2024-01-16T11:45:50;4.30;99.90
12893;DHT22;6514;48.606;9.222;2024-01-16T11:48:17;4.20;99.90
12893;DHT22;6514;48.606;9.222;2024-01-16T11:50:45;4.00;99.90
12893;DHT22;6514;48.606;9.222;2024-01-16T11:53:37;4.10;99.90
12893;DHT22;6514;48.606;9.222;2024-01-16T11:56:37;4.10;99.90
12893;DHT22;6514;48.606;9.222;2024-01-16T11:59:32;4.00;99.90
12893;DHT22;6514;48.606;9.222;2024-01-16T12:02:12;3.70;99.90
12893;DHT22;6514;48.606;9.222;2024-01-16T12:04:40;3.80;99.90
12893;DHT22;6514;48.606;9.222;2024-01-16T12:07:08;3.70;99.90
12893;DHT22;6514;48.606;9.222;2024-01-16T12:09:36;3.70;99.90
12893;DHT22;6514;48.606;9.222;2024-01-16T12:12:03;3.90;99.90
12893;DHT22;6514;48.606;9.222;2024-01-16T12:14:32;3.80;99.90
12893;DHT22;6514;48.606;9.222;2024-01-16T12:17:10;4.00;99.90
12893;DHT22;6514;48.606;9.222;2024-01-16T12:19:37;4.00;99.90
12893;DHT22;6514;48.606;9.222;2024-01-16T12:22:08;4.00;99.90
12893;DHT22;6514;48.606;9.222;2024-01-16T12:24:36;4.10;99.90
12893;DHT22;6514;48.606;9.222;2024-01-16T12:27:03;4.00;99.90
12893;DHT22;6514;48.606;9.222;2024-01-16T12:29:32;4.10;99.90
12893;DHT22;6514;48.606;9.222;2024-01-16T12:32:06;4.00;99.90
12893;DHT22;6514;48.606;9.222;2024-01-16T12:34:34;4.10;99.90
12893;DHT22;6514;48.606;9.222;2024-01-16T12:37:05;4.10;99.90
12893;DHT22;6514;48.606;9.222;2024-01-16T12:39:32;4.10;99.90
12893;DHT22;6514;48.606;9.222;2024-01-16T12:42:01;4.00;99.90
12893;DHT22;6514;48.606;9.222;2024-01-16T12:44:28;3.90;99.90
12893;DHT22;6514;48.606;9.222;2024-01-16T12:46:57;3.80;99.90
12893;DHT22;6514;48.606;9.222;2024-01-16T12:49:24;3.80;99.90
12893;DHT22;6514;48.606;9.222;2024-01-16T12:51:51;3.70;99.90
12893;DHT22;6514;48.606;9.222;2024-01-16T12:54:19;3.70;99.90
12893;DHT22;6514;48.606;9.222;2024-01-16T12:56:58;3.80;99.90
12893;DHT22;6514;48.606;9.222;2024-01-16T12:59:27;3.90;99.90
12893;DHT22;6514;48.606;9.222;2024-01-16T13:01:57;3.90;99.90
12893;DHT22;6514;48.606;9.222;2024-01-16T13:04:26;3.90;99.90
12893;DHT22;6514;48.606;9.222;2024-01-16T13:07:01;3.90;99.90
12893;DHT22;6514;48.606;9.222;2024-01-16T13:09:28;3.90;99.90
12893;DHT22;6514;48.606;9.222;2024-01-16T13:11:55;3.90;99.90
12893;DHT22;6514;48.606;9.222;2024-01-16T13:14:24;3.90;99.90
12893;DHT22;6514;48.606;9.222;2024-01-16T13:16:52;3.90;99.90
12893;DHT22;6514;48.606;9.222;2024-01-16T13:19:20;3.90;99.90
12893;DHT22;6514;48.606;9.222;2024-01-16T13:21:47;3.90;99.90
12893;DHT22;6514;48.606;9.222;2024-01-16T13:24:13;3.80;99.90
12893;DHT22;6514;48.606;9.222;2024-01-16T13:26:40;3.70;99.90
12893;DHT22;6514;48.606;9.222;2024-01-16T13:29:07;3.70;99.90
12893;DHT22;6514;48.606;9.222;2024-01-16T13:31:34;3.60;99.90
12893;DHT22;6514;48.606;9.222;2024-01-16T13:34:01;3.50;99.90
12893;DHT22;6514;48.606;9.222;2024-01-16T13:36:29;3.50;99.90
12893;DHT22;6514;48.606;9.222;2024-01-16T13:38:56;3.40;99.90
12893;DHT22;6514;48.606;9.222;2024-01-16T13:41:23;3.30;99.90
12893;DHT22;6514;48.606;9.222;2024-01-16T13:43:50;3.30;99.90
12893;DHT22;6514;48.606;9.222;2024-01-16T13:46:17;3.30;99.90
12893;DHT22;6514;48.606;9.222;2024-01-16T13:48:44;3.20;99.90
12893;DHT22;6514;48.606;9.222;2024-01-16T13:51:11;3.30;99.90
12893;DHT22;6514;48.606;9.222;2024-01-16T13:53:39;3.20;99.90
12893;DHT22;6514;48.606;9.222;2024-01-16T13:56:06;3.20;99.90
12893;DHT22;6514;48.606;9.222;2024-01-16T13:58:33;3.10;99.90
12893;DHT22;6514;48.606;9.222;2024-01-16T14:01:00;3.10;99.90
12893;DHT22;6514;48.606;9.222;2024-01-16T14:03:27;3.10;99.90
12893;DHT22;6514;48.606;9.222;2024-01-16T14:05:55;3.10;99.90
12893;DHT22;6514;48.606;9.222;2024-01-16T14:08:22;3.00;99.90
12893;DHT22;6514;48.606;9.222;2024-01-16T14:10:51;2.90;99.90
12893;DHT22;6514;48.606;9.222;2024-01-16T14:13:17;2.90;99.90
12893;DHT22;6514;48.606;9.222;2024-01-16T14:15:44;2.80;99.90
12893;DHT22;6514;48.606;9.222;2024-01-16T14:18:11;2.80;99.90
12893;DHT22;6514;48.606;9.222;2024-01-16T14:20:38;2.80;99.90
12893;DHT22;6514;48.606;9.222;2024-01-16T14:23:05;2.70;99.90
12893;DHT22;6514;48.606;9.222;2024-01-16T14:25:31;2.60;99.90
12893;DHT22;6514;48.606;9.222;2024-01-16T14:28:01;2.60;99.90
12893;DHT22;6514;48.606;9.222;2024-01-16T14:30:32;2.50;99.90
12893;DHT22;6514;48.606;9.222;2024-01-16T14:33:00;2.40;99.90
12893;DHT22;6514;48.606;9.222;2024-01-16T14:35:27;2.30;99.90
12893;DHT22;6514;48.606;9.222;2024-01-16T14:37:54;2.20;99.90
12893;DHT22;6514;48.606;9.222;2024-01-16T14:40:21;2.10;99.90
12893;DHT22;6514;48.606;9.222;2024-01-16T14:42:51;2.00;99.90
12893;DHT22;6514;48.606;9.222;2024-01-16T14:45:20;1.90;99.90
12893;DHT22;6514;48.606;9.222;2024-01-16T14:47:47;1.90;99.90
12893;DHT22;6514;48.606;9.222;2024-01-16T14:50:15;1.90;99.90
12893;DHT22;6514;48.606;9.222;2024-01-16T14:52:43;1.80;99.90
12893;DHT22;6514;48.606;9.222;2024-01-16T14:55:10;1.70;99.90
12893;DHT22;6514;48.606;9.222;2024-01-16T14:57:37;1.60;99.90
12893;DHT22;6514;48.606;9.222;2024-01-16T15:00:08;1.50;99.90
12893;DHT22;6514;48.606;9.222;2024-01-16T15:02:41;1.50;99.90
12893;DHT22;6514;48.606;9.222;2024-01-16T15:05:09;1.40;99.90
12893;DHT22;6514;48.606;9.222;2024-01-16T15:07:38;1.30;99.90
12893;DHT22;6514;48.606;9.222;2024-01-16T15:10:06;1.20;99.90
12893;DHT22;6514;48.606;9.222;2024-01-16T15:12:35;1.10;99.90
12893;DHT22;6514;48.606;9.222;2024-01-16T15:15:01;1.00;99.90
12893;DHT22;6514;48.606;9.222;2024-01-16T15:17:29;0.90;99.90
12893;DHT22;6514;48.606;9.222;2024-01-16T15:19:57;0.80;99.90
12893;DHT22;6514;48.606;9.222;2024-01-16T15:22:24;0.60;99.90
12893;DHT22;6514;48.606;9.222;2024-01-16T15:24:51;0.50;99.90
12893;DHT22;6514;48.606;9.222;2024-01-16T15:27:17;0.40;99.90
12893;DHT22;6514;48.606;9.222;2024-01-16T15:29:45;0.20;99.90
12893;DHT22;6514;48.606;9.222;2024-01-16T15:32:12;0.10;99.90
12893;DHT22;6514;48.606;9.222;2024-01-16T15:34:39;-0.10;99.90
12893;DHT22;6514;48.606;9.222;2024-01-16T15:37:08;-0.30;99.90
12893;DHT22;6514;48.606;9.222;2024-01-16T15:39:34;-0.50;99.90
12893;DHT22;6514;48.606;9.222;2024-01-16T15:42:01;-0.70;99.90
12893;DHT22;6514;48.606;9.222;2024-01-16T15:44:28;-0.90;99.90
12893;DHT22;6514;48.606;9.222;2024-01-16T15:46:59;-1.20;99.90
12893;DHT22;6514;48.606;9.222;2024-01-16T15:49:26;-1.40;99.90
12893;DHT22;6514;48.606;9.222;2024-01-16T15:51:53;-1.50;99.90
12893;DHT22;6514;48.606;9.222;2024-01-16T15:54:22;-1.70;99.90
12893;DHT22;6514;48.606;9.222;2024-01-16T15:56:49;-1.90;99.90
12893;DHT22;6514;48.606;9.222;2024-01-16T15:59:15;-0.70;99.90